Andrews AFB, Maryland
Current Conditions -  °F | °C
As of 8:58 PM on Wednesday 17 Dec 2014 (Local Time) from KADW Reporting Station
Clear Clear  
Wind Chill: 33°   Ceiling: Unl
Heat Index: 39°   Visibility: 10mi
Dew Point: 25°   Wind: 9mph
Humidity: 56%   Direction: 320°NW
Pressure: 30.04"   Gusts: NA
Location:  38.8°N, 76.87°W
Report Text: KADW 180158Z 32008KT 10SM CLR 04/M04 A3004 RMK AO2A SLP173 $
Loading
Personal Weather Stations






























Interactive Weather Map New forecast layout! Learn more

10-Day Weather Forecast

Advertisements
Track Severe Weather on mobile